createdAt,value
2018-09-29T00:00:01.889Z,3.00
2018-09-29T00:02:30.701Z,2.40
2018-09-29T00:04:59.508Z,2.10
2018-09-29T00:07:28.328Z,2.70
2018-09-29T00:09:57.142Z,2.40
2018-09-29T00:12:26.122Z,2.53
2018-09-29T00:14:54.910Z,2.30
2018-09-29T00:17:23.732Z,2.60
2018-09-29T00:19:52.516Z,2.70
2018-09-29T00:22:21.327Z,2.70
2018-09-29T00:24:50.139Z,1.90
2018-09-29T00:27:18.972Z,1.80
2018-09-29T00:29:47.764Z,2.10
2018-09-29T00:32:16.603Z,2.50
2018-09-29T00:34:45.512Z,2.40
2018-09-29T00:37:14.322Z,2.43
2018-09-29T00:39:43.171Z,2.73
2018-09-29T00:42:12.012Z,3.17
2018-09-29T00:44:40.824Z,2.20
2018-09-29T00:47:09.643Z,2.20
2018-09-29T00:49:38.448Z,1.93
2018-09-29T00:52:07.271Z,1.90
2018-09-29T00:54:36.072Z,1.50
2018-09-29T00:57:04.927Z,1.60
2018-09-29T00:59:33.739Z,1.83
2018-09-29T01:02:02.564Z,1.40
2018-09-29T01:04:31.499Z,1.57
2018-09-29T01:07:00.259Z,2.20
2018-09-29T01:09:29.088Z,1.60
2018-09-29T01:11:57.908Z,1.67
2018-09-29T01:14:26.735Z,1.53
2018-09-29T01:16:55.575Z,1.20
2018-09-29T01:19:24.403Z,1.73
2018-09-29T01:21:53.199Z,1.60
2018-09-29T01:24:22.032Z,1.40
2018-09-29T01:26:50.823Z,1.30
2018-09-29T01:29:19.633Z,1.40
2018-09-29T01:31:48.452Z,1.70
2018-09-29T01:34:17.441Z,1.73
2018-09-29T01:36:46.343Z,1.53
2018-09-29T01:39:15.128Z,2.97
2018-09-29T01:41:43.948Z,1.30
2018-09-29T01:44:12.744Z,1.50
2018-09-29T01:46:41.562Z,1.70
2018-09-29T01:49:10.373Z,1.40
2018-09-29T01:51:39.200Z,1.80
2018-09-29T01:54:08.092Z,1.60
2018-09-29T01:56:36.963Z,1.23
2018-09-29T01:59:05.784Z,1.57
2018-09-29T02:01:34.592Z,1.43
2018-09-29T02:04:03.379Z,0.93
2018-09-29T02:06:32.191Z,1.50
2018-09-29T02:09:00.984Z,1.60
2018-09-29T02:11:29.542Z,1.57
2018-09-29T02:13:58.255Z,1.80
2018-09-29T02:16:27.072Z,1.60
2018-09-29T02:18:55.855Z,1.40
2018-09-29T02:21:24.688Z,1.30
2018-09-29T02:23:53.476Z,1.27
2018-09-29T02:26:22.316Z,1.90
2018-09-29T02:28:51.218Z,1.33
2018-09-29T02:31:20.020Z,2.27
2018-09-29T02:33:48.856Z,1.30
2018-09-29T02:36:17.679Z,1.30
2018-09-29T02:38:46.464Z,1.20
2018-09-29T02:41:15.256Z,1.60
2018-09-29T02:43:44.126Z,1.17
2018-09-29T02:46:12.872Z,1.87
2018-09-29T02:48:41.736Z,1.50
2018-09-29T02:51:10.564Z,1.47
2018-09-29T02:53:40.571Z,1.53
2018-09-29T02:56:09.424Z,1.30
2018-09-29T02:58:38.248Z,1.30
2018-09-29T03:01:07.249Z,1.93
2018-09-29T03:03:36.084Z,1.00
2018-09-29T03:06:04.871Z,1.30
2018-09-29T03:08:33.671Z,1.10
2018-09-29T03:11:02.471Z,1.50
2018-09-29T03:13:31.273Z,1.63
2018-09-29T03:16:00.112Z,1.70
2018-09-29T03:18:28.912Z,1.33
2018-09-29T03:20:57.705Z,1.43
2018-09-29T03:23:26.501Z,1.23
2018-09-29T03:25:55.303Z,1.63
2018-09-29T03:28:24.095Z,1.07
2018-09-29T03:30:52.911Z,1.77
2018-09-29T03:33:21.872Z,1.37
2018-09-29T03:35:50.704Z,1.13
2018-09-29T03:38:19.507Z,1.23
2018-09-29T03:40:48.316Z,1.40
2018-09-29T03:43:17.100Z,1.10
2018-09-29T03:45:45.921Z,1.53
2018-09-29T03:48:14.732Z,1.20
2018-09-29T03:50:43.579Z,1.43
2018-09-29T03:53:12.416Z,1.23
2018-09-29T03:55:41.252Z,1.60
2018-09-29T03:58:10.028Z,1.40
2018-09-29T04:00:38.949Z,1.30
2018-09-29T04:03:07.716Z,2.10
2018-09-29T04:05:36.656Z,1.10
2018-09-29T04:08:05.481Z,1.30
2018-09-29T04:10:34.267Z,1.50
2018-09-29T04:13:03.372Z,1.77
2018-09-29T04:15:32.245Z,1.47
2018-09-29T04:18:01.893Z,1.50
2018-09-29T04:20:30.684Z,1.73
2018-09-29T04:22:59.514Z,1.30
2018-09-29T04:25:28.308Z,1.17
2018-09-29T04:27:57.131Z,0.93
2018-09-29T04:30:25.944Z,1.30
2018-09-29T04:32:54.772Z,1.20
2018-09-29T04:35:23.556Z,1.60
2018-09-29T04:37:52.388Z,1.27
2018-09-29T04:40:21.185Z,1.27
2018-09-29T04:42:49.992Z,1.23
2018-09-29T04:45:18.776Z,1.10
2018-09-29T04:47:47.876Z,1.50
2018-09-29T04:50:16.669Z,1.70
2018-09-29T04:52:45.468Z,1.30
2018-09-29T04:55:14.268Z,1.30
2018-09-29T04:57:43.048Z,1.37
2018-09-29T05:00:11.900Z,1.70
2018-09-29T05:02:40.729Z,1.37
2018-09-29T05:05:09.633Z,1.70
2018-09-29T05:07:38.446Z,1.57
2018-09-29T05:10:07.280Z,1.10
2018-09-29T05:12:36.088Z,1.40
2018-09-29T05:15:05.082Z,1.50
2018-09-29T05:17:33.887Z,1.40
2018-09-29T05:20:02.725Z,1.30
2018-09-29T05:22:31.564Z,1.63
2018-09-29T05:25:00.405Z,1.00
2018-09-29T05:27:29.201Z,1.37
2018-09-29T05:29:58.055Z,1.40
2018-09-29T05:32:26.894Z,1.57
2018-09-29T05:34:55.715Z,1.40
2018-09-29T05:37:24.541Z,1.30
2018-09-29T05:39:53.344Z,1.40
2018-09-29T05:42:22.196Z,1.13
2018-09-29T05:44:51.027Z,1.53
2018-09-29T05:47:19.828Z,1.40
2018-09-29T05:49:48.684Z,1.27
2018-09-29T05:52:17.501Z,1.20
2018-09-29T05:54:46.331Z,1.30
2018-09-29T05:57:15.136Z,1.47
2018-09-29T05:59:44.076Z,1.10
2018-09-29T06:02:12.878Z,1.17
2018-09-29T06:04:41.735Z,0.87
2018-09-29T06:07:10.572Z,1.37
2018-09-29T06:09:39.339Z,1.40
2018-09-29T06:12:08.168Z,1.80
2018-09-29T06:14:36.996Z,1.10
2018-09-29T06:17:05.808Z,1.03
2018-09-29T06:19:34.623Z,0.67
2018-09-29T06:22:03.448Z,1.57
2018-09-29T06:24:32.273Z,1.33
2018-09-29T06:27:01.128Z,1.40
2018-09-29T06:29:29.919Z,0.93
2018-09-29T06:31:58.952Z,1.00
2018-09-29T06:34:27.791Z,0.90
2018-09-29T06:36:56.673Z,1.43
2018-09-29T06:39:25.467Z,1.10
2018-09-29T06:41:54.259Z,1.80
2018-09-29T06:44:23.097Z,1.10
2018-09-29T06:46:51.992Z,1.40
2018-09-29T06:49:20.810Z,1.33
2018-09-29T06:51:49.677Z,1.73
2018-09-29T06:54:18.580Z,2.33
2018-09-29T06:56:47.373Z,1.43
2018-09-29T06:59:16.179Z,1.33
2018-09-29T07:01:45.040Z,1.70
2018-09-29T07:04:13.845Z,1.87
2018-09-29T07:06:42.696Z,1.40
2018-09-29T07:09:12.716Z,1.67
2018-09-29T07:11:42.108Z,1.73
2018-09-29T07:14:11.267Z,1.23
2018-09-29T07:16:40.156Z,1.27
2018-09-29T07:19:08.997Z,1.50
2018-09-29T07:21:37.915Z,1.13
2018-09-29T07:24:06.677Z,1.10
2018-09-29T07:26:35.517Z,1.80
2018-09-29T07:29:04.332Z,1.33
2018-09-29T07:31:33.246Z,1.13
2018-09-29T07:34:02.037Z,1.10
2018-09-29T07:36:30.971Z,1.10
2018-09-29T07:38:59.821Z,0.90
2018-09-29T07:41:28.623Z,1.17
2018-09-29T07:43:57.491Z,1.23
2018-09-29T07:46:26.316Z,1.43
2018-09-29T07:48:55.115Z,0.97
2018-09-29T07:51:23.921Z,1.10
2018-09-29T07:53:52.747Z,0.90
2018-09-29T07:56:21.568Z,1.40
2018-09-29T07:58:50.376Z,1.03
2018-09-29T08:01:19.227Z,0.93
2018-09-29T08:03:48.028Z,1.20
2018-09-29T08:06:16.865Z,1.60
2018-09-29T08:08:45.769Z,0.97
2018-09-29T08:11:14.583Z,1.30
2018-09-29T08:13:43.417Z,1.20
2018-09-29T08:16:12.290Z,0.80
2018-09-29T08:18:41.239Z,1.40
2018-09-29T08:21:10.052Z,1.47
2018-09-29T08:23:38.868Z,1.80
2018-09-29T08:26:07.707Z,0.90
2018-09-29T08:28:36.531Z,0.90
2018-09-29T08:31:05.320Z,1.03
2018-09-29T08:33:34.127Z,1.77
2018-09-29T08:36:02.952Z,1.50
2018-09-29T08:38:31.792Z,1.20
2018-09-29T08:41:00.621Z,1.33
2018-09-29T08:43:29.463Z,1.90
2018-09-29T08:45:58.286Z,0.90
2018-09-29T08:48:27.140Z,1.03
2018-09-29T08:50:55.980Z,1.37
2018-09-29T08:53:24.919Z,1.10
2018-09-29T08:55:53.632Z,1.23
2018-09-29T08:58:22.448Z,1.10
2018-09-29T09:00:51.252Z,0.90
2018-09-29T09:03:20.120Z,0.83
2018-09-29T09:05:48.921Z,1.37
2018-09-29T09:08:17.787Z,1.20
2018-09-29T09:10:46.624Z,1.23
2018-09-29T09:13:15.821Z,1.70
2018-09-29T09:15:44.702Z,1.20
2018-09-29T09:18:13.501Z,2.23
2018-09-29T09:20:42.335Z,1.30
2018-09-29T09:23:11.235Z,1.70
2018-09-29T09:25:40.010Z,2.53
2018-09-29T09:28:08.849Z,2.30
2018-09-29T09:30:37.637Z,2.67
2018-09-29T09:33:06.555Z,2.70
2018-09-29T09:35:35.372Z,2.20
2018-09-29T09:38:04.200Z,3.20
2018-09-29T09:40:33.006Z,2.27
2018-09-29T09:43:01.891Z,3.17
2018-09-29T09:45:30.688Z,2.00
2018-09-29T09:47:59.521Z,3.27
2018-09-29T09:50:28.393Z,1.83
2018-09-29T09:52:57.211Z,2.60
2018-09-29T09:55:26.000Z,1.93
2018-09-29T09:57:54.834Z,2.27
2018-09-29T10:00:27.847Z,2.13
2018-09-29T10:03:02.226Z,1.93
2018-09-29T10:05:31.124Z,2.30
2018-09-29T10:07:59.972Z,2.30
2018-09-29T10:10:28.817Z,2.53
2018-09-29T10:12:57.661Z,1.97
2018-09-29T10:15:26.549Z,2.43
2018-09-29T10:17:55.328Z,2.30
2018-09-29T10:20:24.131Z,3.00
2018-09-29T10:22:52.952Z,2.50
2018-09-29T10:25:22.019Z,2.40
2018-09-29T10:27:51.026Z,2.57
2018-09-29T10:30:20.269Z,2.80
2018-09-29T10:32:49.096Z,3.03
2018-09-29T10:35:17.899Z,4.10
2018-09-29T10:37:46.725Z,2.80
2018-09-29T10:40:15.516Z,2.50
2018-09-29T10:42:45.249Z,2.53
2018-09-29T10:45:14.040Z,2.60
2018-09-29T10:47:42.911Z,2.10
2018-09-29T10:50:11.768Z,1.80
2018-09-29T10:52:41.095Z,2.33
2018-09-29T10:55:09.960Z,2.20
2018-09-29T10:57:39.181Z,2.90
2018-09-29T11:00:08.081Z,1.77
2018-09-29T11:02:36.999Z,2.30
2018-09-29T11:05:05.844Z,2.33
2018-09-29T11:07:34.560Z,2.30
2018-09-29T11:10:03.398Z,2.23
2018-09-29T11:12:32.229Z,2.30
2018-09-29T11:15:01.294Z,2.10
2018-09-29T11:17:30.068Z,2.90
2018-09-29T11:19:58.891Z,2.30
2018-09-29T11:22:27.773Z,2.10
2018-09-29T11:24:56.579Z,2.00
2018-09-29T11:27:25.380Z,1.80
2018-09-29T11:29:54.243Z,2.33
2018-09-29T11:32:23.036Z,2.43
2018-09-29T11:34:51.868Z,1.93
2018-09-29T11:37:20.676Z,2.50
2018-09-29T11:39:49.492Z,1.90
2018-09-29T11:42:18.291Z,3.50
2018-09-29T11:44:47.169Z,2.57
2018-09-29T11:47:15.952Z,2.43
2018-09-29T11:49:44.767Z,1.90
2018-09-29T11:52:13.621Z,3.13
2018-09-29T11:54:42.530Z,2.63
2018-09-29T11:57:11.384Z,2.40
2018-09-29T11:59:40.265Z,2.50
2018-09-29T12:02:09.084Z,2.70
2018-09-29T12:04:37.888Z,2.23
2018-09-29T12:07:06.742Z,2.50
2018-09-29T12:09:35.529Z,2.40
2018-09-29T12:12:04.368Z,1.77
2018-09-29T12:14:33.224Z,1.73
2018-09-29T12:17:02.049Z,2.80
2018-09-29T12:19:30.880Z,1.37
2018-09-29T12:21:59.693Z,2.00
2018-09-29T12:24:28.495Z,1.70
2018-09-29T12:26:57.327Z,2.03
2018-09-29T12:29:26.171Z,1.97
2018-09-29T12:31:54.960Z,1.93
2018-09-29T12:34:23.768Z,2.40
2018-09-29T12:36:52.679Z,2.00
2018-09-29T12:39:21.445Z,1.90
2018-09-29T12:41:50.235Z,1.77
2018-09-29T12:44:19.130Z,1.80
2018-09-29T12:46:47.895Z,2.10
2018-09-29T12:49:16.735Z,1.67
2018-09-29T12:51:45.538Z,1.67
2018-09-29T12:54:14.342Z,1.97
2018-09-29T12:56:43.164Z,1.53
2018-09-29T12:59:12.009Z,1.80
2018-09-29T13:01:40.816Z,1.73
2018-09-29T13:05:34.092Z,2.10
2018-09-29T13:08:02.942Z,2.40
2018-09-29T13:10:31.805Z,2.13
2018-09-29T13:13:00.629Z,1.80
2018-09-29T13:15:29.500Z,2.10
2018-09-29T13:17:58.327Z,1.80
2018-09-29T13:20:27.208Z,1.53
2018-09-29T13:22:56.079Z,1.93
2018-09-29T13:25:24.828Z,1.80
2018-09-29T13:27:53.662Z,1.77
2018-09-29T13:30:22.539Z,1.70
2018-09-29T13:32:51.368Z,1.83
2018-09-29T13:35:20.231Z,1.50
2018-09-29T13:37:49.122Z,1.80
2018-09-29T13:40:17.962Z,1.63
2018-09-29T13:42:46.768Z,1.63
2018-09-29T13:45:15.575Z,1.60
2018-09-29T13:47:44.391Z,1.50
2018-09-29T13:50:13.306Z,1.57
2018-09-29T13:52:42.118Z,1.53
2018-09-29T13:55:11.104Z,1.50
2018-09-29T13:57:39.932Z,1.70
2018-09-29T14:00:08.779Z,1.70
2018-09-29T14:02:37.595Z,1.40
2018-09-29T14:05:06.698Z,2.00
2018-09-29T14:07:35.456Z,1.07
2018-09-29T14:10:04.287Z,1.60
2018-09-29T14:12:33.099Z,1.60
2018-09-29T14:15:01.932Z,1.20
2018-09-29T14:17:30.736Z,2.00
2018-09-29T14:19:59.621Z,1.50
2018-09-29T14:22:28.432Z,1.30
2018-09-29T14:24:57.268Z,2.00
2018-09-29T14:27:26.088Z,1.50
2018-09-29T14:29:54.921Z,1.93
2018-09-29T14:32:23.748Z,1.50
2018-09-29T14:34:52.575Z,1.57
2018-09-29T14:37:21.426Z,1.30
2018-09-29T14:39:50.228Z,1.63
2018-09-29T14:42:19.081Z,1.50
2018-09-29T14:44:47.927Z,1.50
2018-09-29T14:47:16.749Z,1.10
2018-09-29T14:49:45.824Z,1.50
2018-09-29T14:52:14.699Z,1.30
2018-09-29T14:54:43.512Z,1.80
2018-09-29T14:57:12.360Z,1.27
2018-09-29T14:59:41.225Z,1.50
2018-09-29T15:02:10.057Z,1.30
2018-09-29T15:04:38.795Z,1.27
2018-09-29T15:07:07.666Z,1.40
2018-09-29T15:09:36.448Z,1.00
2018-09-29T15:12:05.284Z,1.13
2018-09-29T15:14:34.143Z,2.00
2018-09-29T15:17:03.292Z,1.37
2018-09-29T15:19:32.241Z,1.57
2018-09-29T15:22:01.312Z,1.20
2018-09-29T15:24:30.149Z,1.90
2018-09-29T15:26:58.940Z,1.80
2018-09-29T15:29:27.780Z,1.20
2018-09-29T15:31:56.613Z,1.47
2018-09-29T15:34:25.418Z,1.90
2018-09-29T15:36:54.293Z,1.37
2018-09-29T15:39:23.037Z,1.77
2018-09-29T15:41:51.876Z,1.80
2018-09-29T15:44:20.667Z,1.17
2018-09-29T15:46:49.543Z,1.60
2018-09-29T15:50:42.879Z,1.53
2018-09-29T15:53:11.735Z,1.60
2018-09-29T15:55:40.595Z,1.60
2018-09-29T15:58:09.401Z,1.50
2018-09-29T16:00:38.215Z,1.57
2018-09-29T16:03:07.044Z,1.70
2018-09-29T16:05:35.840Z,1.20
2018-09-29T16:08:04.731Z,1.53
2018-09-29T16:10:33.560Z,2.07
2018-09-29T16:13:02.432Z,1.17
2018-09-29T16:15:31.255Z,1.17
2018-09-29T16:18:00.052Z,1.20
2018-09-29T16:20:28.880Z,1.23
2018-09-29T16:22:57.771Z,1.30
2018-09-29T16:25:26.600Z,1.30
2018-09-29T16:27:55.455Z,1.13
2018-09-29T16:30:24.293Z,1.20
2018-09-29T16:32:53.143Z,1.30
2018-09-29T16:35:21.956Z,1.77
2018-09-29T16:37:50.787Z,1.30
2018-09-29T16:40:19.607Z,1.70
2018-09-29T16:42:48.484Z,1.40
2018-09-29T16:45:17.337Z,1.40
2018-09-29T16:47:46.184Z,1.17
2018-09-29T16:50:14.975Z,1.57
2018-09-29T16:52:43.891Z,1.60
2018-09-29T16:55:12.737Z,1.50
2018-09-29T16:57:41.583Z,1.17
2018-09-29T17:00:10.408Z,1.00
2018-09-29T17:02:39.222Z,1.20
2018-09-29T17:05:08.060Z,1.00
2018-09-29T17:07:36.904Z,1.30
2018-09-29T17:10:05.704Z,1.53
2018-09-29T17:12:34.555Z,1.50
2018-09-29T17:15:03.368Z,1.50
2018-09-29T17:17:32.168Z,1.00
2018-09-29T17:20:01.382Z,2.27
2018-09-29T17:22:30.198Z,1.10
2018-09-29T17:24:59.008Z,1.77
2018-09-29T17:27:27.829Z,1.57
2018-09-29T17:29:56.644Z,1.10
2018-09-29T17:32:25.456Z,1.43
2018-09-29T17:34:54.252Z,1.77
2018-09-29T17:37:23.048Z,1.03
2018-09-29T17:39:51.868Z,1.57
2018-09-29T17:42:20.666Z,1.50
2018-09-29T17:44:49.517Z,1.10
2018-09-29T17:47:18.324Z,1.30
2018-09-29T17:49:47.145Z,1.20
2018-09-29T17:52:15.959Z,1.40
2018-09-29T17:54:44.785Z,1.20
2018-09-29T17:57:13.579Z,1.07
2018-09-29T17:59:42.439Z,1.10
2018-09-29T18:02:11.244Z,2.80
2018-09-29T18:04:40.057Z,1.40
2018-09-29T18:07:09.156Z,1.40
2018-09-29T18:09:37.996Z,1.27
2018-09-29T18:12:06.812Z,1.23
2018-09-29T18:14:35.633Z,1.33
2018-09-29T18:17:04.442Z,0.90
2018-09-29T18:19:33.327Z,1.57
2018-09-29T18:22:02.259Z,1.53
2018-09-29T18:24:30.929Z,1.47
2018-09-29T18:26:59.742Z,1.40
2018-09-29T18:29:28.600Z,1.23
2018-09-29T18:31:57.388Z,1.83
2018-09-29T18:34:26.191Z,1.47
2018-09-29T18:36:54.979Z,1.43
2018-09-29T18:39:23.817Z,1.70
2018-09-29T18:41:52.615Z,1.60
2018-09-29T18:44:21.459Z,1.93
2018-09-29T18:46:50.256Z,1.50
2018-09-29T18:49:19.062Z,1.37
2018-09-29T18:51:47.953Z,1.77
2018-09-29T18:54:16.683Z,1.50
2018-09-29T18:56:45.491Z,1.60
2018-09-29T18:59:14.291Z,1.80
2018-09-29T19:01:43.128Z,2.23
2018-09-29T19:04:11.947Z,2.07
2018-09-29T19:06:40.739Z,1.53
2018-09-29T19:09:10.968Z,1.40
2018-09-29T19:11:40.143Z,1.57
2018-09-29T19:14:08.981Z,1.60
2018-09-29T19:16:37.812Z,1.30
2018-09-29T19:19:06.724Z,1.57
2018-09-29T19:21:35.548Z,1.10
2018-09-29T19:24:04.352Z,1.80
2018-09-29T19:26:33.172Z,1.67
2018-09-29T19:29:02.239Z,2.07
2018-09-29T19:31:31.095Z,1.30
2018-09-29T19:33:59.896Z,1.23
2018-09-29T19:36:28.709Z,1.70
2018-09-29T19:38:57.508Z,1.33
2018-09-29T19:41:26.320Z,1.40
2018-09-29T19:43:55.125Z,1.33
2018-09-29T19:46:23.931Z,1.60
2018-09-29T19:48:52.724Z,1.73
2018-09-29T19:51:21.578Z,1.53
2018-09-29T19:53:50.336Z,1.40
2018-09-29T19:56:19.172Z,1.30
2018-09-29T19:58:48.071Z,1.40
2018-09-29T20:01:16.881Z,1.57
2018-09-29T20:03:45.723Z,1.77
2018-09-29T20:06:14.469Z,2.20
2018-09-29T20:08:43.051Z,1.60
2018-09-29T20:11:11.780Z,2.23
2018-09-29T20:13:40.594Z,1.93
2018-09-29T20:16:09.421Z,1.77
2018-09-29T20:18:38.212Z,1.90
2018-09-29T20:21:07.021Z,1.50
2018-09-29T20:23:35.818Z,1.40
2018-09-29T20:26:04.367Z,1.73
2018-09-29T20:28:33.071Z,1.53
2018-09-29T20:31:01.885Z,1.40
2018-09-29T20:33:30.695Z,1.70
2018-09-29T20:35:59.508Z,1.57
2018-09-29T20:38:28.476Z,1.53
2018-09-29T20:40:57.287Z,1.20
2018-09-29T20:43:26.098Z,1.30
2018-09-29T20:45:54.900Z,1.30
2018-09-29T20:48:23.717Z,1.30
2018-09-29T20:50:52.524Z,4.40
2018-09-29T20:53:21.332Z,5.27
2018-09-29T20:55:50.196Z,5.10
2018-09-29T20:58:18.943Z,4.30
2018-09-29T21:00:47.510Z,3.87
2018-09-29T21:03:16.210Z,4.80
2018-09-29T21:05:45.007Z,4.77
2018-09-29T21:08:13.783Z,4.63
2018-09-29T21:10:42.572Z,4.20
2018-09-29T21:13:11.476Z,4.93
2018-09-29T21:15:40.204Z,4.40
2018-09-29T21:18:09.004Z,4.97
2018-09-29T21:20:37.800Z,4.50
2018-09-29T21:23:06.689Z,3.80
2018-09-29T21:25:35.483Z,3.93
2018-09-29T21:28:04.426Z,4.47
2018-09-29T21:30:33.204Z,3.67
2018-09-29T21:33:02.016Z,3.90
2018-09-29T21:35:30.809Z,4.60
2018-09-29T21:37:59.636Z,4.13
2018-09-29T21:40:28.443Z,5.60
2018-09-29T21:42:57.284Z,6.87
2018-09-29T21:45:26.077Z,5.97
2018-09-29T21:47:54.897Z,7.37
2018-09-29T21:50:23.696Z,6.30
2018-09-29T21:52:52.544Z,6.53
2018-09-29T21:55:21.438Z,5.00
2018-09-29T21:57:50.261Z,5.10
2018-09-29T22:00:24.436Z,4.50
2018-09-29T22:02:53.249Z,3.90
2018-09-29T22:05:22.056Z,4.63
2018-09-29T22:07:50.863Z,3.60
2018-09-29T22:10:19.683Z,3.43
2018-09-29T22:12:48.478Z,3.70
2018-09-29T22:15:17.288Z,4.10
2018-09-29T22:17:46.109Z,3.83
2018-09-29T22:20:14.884Z,2.97
2018-09-29T22:22:43.710Z,3.23
2018-09-29T22:25:12.496Z,3.20
2018-09-29T22:27:41.316Z,4.70
2018-09-29T22:30:10.146Z,3.30
2018-09-29T22:32:38.985Z,3.60
2018-09-29T22:35:07.788Z,3.00
2018-09-29T22:37:36.715Z,3.20
2018-09-29T22:40:05.514Z,2.80
2018-09-29T22:42:34.367Z,2.43
2018-09-29T22:45:03.159Z,2.33
2018-09-29T22:47:31.971Z,1.97
2018-09-29T22:50:00.816Z,1.77
2018-09-29T22:52:29.641Z,2.47
2018-09-29T22:54:58.427Z,2.30
2018-09-29T22:57:27.276Z,1.70
2018-09-29T22:59:56.048Z,2.50
2018-09-29T23:02:24.840Z,2.50
2018-09-29T23:04:53.628Z,2.20
2018-09-29T23:07:22.513Z,3.17
2018-09-29T23:09:51.295Z,4.13
2018-09-29T23:12:20.128Z,3.10
2018-09-29T23:14:48.919Z,3.30
2018-09-29T23:17:17.783Z,2.80
2018-09-29T23:19:46.595Z,3.37
2018-09-29T23:22:15.428Z,2.10
2018-09-29T23:24:44.286Z,3.00
2018-09-29T23:27:13.024Z,2.97
2018-09-29T23:29:41.883Z,3.50
2018-09-29T23:32:10.675Z,3.93
2018-09-29T23:34:39.511Z,3.63
2018-09-29T23:37:08.297Z,2.43
2018-09-29T23:39:37.171Z,2.90
2018-09-29T23:42:05.997Z,3.17
2018-09-29T23:44:34.851Z,3.27
2018-09-29T23:47:03.635Z,4.30
2018-09-29T23:49:32.495Z,2.70
2018-09-29T23:52:01.324Z,2.80
2018-09-29T23:54:30.221Z,2.90
2018-09-29T23:56:58.971Z,3.00
2018-09-29T23:59:27.816Z,2.83
